Time;durP1;ratioP1;P1;durP2;ratioP2;P2;SDS_P1;SDS_P2;PMS_P1;PMS_P2;Temp;Humidity;BMP_temperature;BMP_pressure;BME280_temperature;BME280_humidity;BME280_pressure;Samples;Min_cycle;Max_cycle;Signal;HPM_P1;HPM_P2
2022/03/14 00:01:31;;;;;;;0.22;0.22;;;;;;;13.93;49.12;101151.81;5145632;28;20023;-83
2022/03/14 00:04:03;;;;;;;0.82;0.82;;;;;;;13.94;49.03;101150.91;5175335;28;20144;-82
2022/03/14 00:06:35;;;;;;;0.30;0.30;;;;;;;13.94;49.46;101162.31;5191143;28;20026;-85
2022/03/14 00:09:07;;;;;;;0.43;0.43;;;;;;;13.93;48.91;101162.34;5183950;28;20050;-85
2022/03/14 00:11:41;;;;;;;0.40;0.40;;;;;;;13.96;49.39;101159.63;5172617;28;20030;-84
2022/03/14 00:14:11;;;;;;;0.35;0.35;;;;;;;14.00;49.71;101158.63;5171977;28;20052;-84
2022/03/14 00:16:43;;;;;;;0.32;0.32;;;;;;;13.99;49.72;101167.44;5166602;28;20029;-82
2022/03/14 00:19:14;;;;;;;0.30;0.30;;;;;;;13.94;49.55;101162.31;5185102;28;20062;-85
2022/03/14 00:21:45;;;;;;;0.50;0.50;;;;;;;13.93;49.58;101167.63;5154294;28;20042;-81
2022/03/14 00:24:16;;;;;;;0.20;0.20;;;;;;;13.84;49.32;101171.47;5195763;28;20041;-83
2022/03/14 00:26:46;;;;;;;0.30;0.30;;;;;;;13.79;49.57;101179.53;5166936;28;20062;-82
2022/03/14 00:29:18;;;;;;;0.50;0.50;;;;;;;13.79;49.43;101179.53;5187244;28;20046;-81
2022/03/14 00:31:49;;;;;;;0.50;0.50;;;;;;;13.72;50.09;101193.81;5167094;28;20025;-82
2022/03/14 00:34:19;;;;;;;0.28;0.25;;;;;;;13.71;49.80;101189.47;5171127;28;20133;-84
2022/03/14 00:36:50;;;;;;;0.73;0.60;;;;;;;13.72;49.78;101193.81;5164408;28;20277;-83
2022/03/14 00:39:20;;;;;;;0.32;0.32;;;;;;;13.76;49.86;101199.84;5174529;28;20048;-81
2022/03/14 00:41:51;;;;;;;0.43;0.43;;;;;;;13.76;49.50;101199.84;5168991;28;20030;-82
2022/03/14 00:44:21;;;;;;;0.30;0.30;;;;;;;13.74;49.74;101204.31;5174844;28;20046;-82
2022/03/14 00:46:52;;;;;;;0.30;0.30;;;;;;;13.66;50.28;101204.59;5175124;28;20040;-85
2022/03/14 00:49:23;;;;;;;0.28;0.28;;;;;;;13.63;49.80;101213.47;5155472;28;20091;-83
2022/03/14 00:51:53;;;;;;;0.40;0.40;;;;;;;13.58;50.65;101218.00;5155537;28;20506;-83
2022/03/14 00:54:24;;;;;;;0.25;0.25;;;;;;;13.59;50.67;101221.50;5185328;28;20348;-83
2022/03/14 00:56:54;;;;;;;0.30;0.30;;;;;;;13.63;50.93;101221.38;5147639;28;20068;-83
2022/03/14 00:59:25;;;;;;;0.22;0.22;;;;;;;13.59;50.98;101224.16;5166080;28;20046;-84
2022/03/14 01:01:56;;;;;;;0.35;0.35;;;;;;;13.60;50.99;101228.47;5151404;28;20381;-82
2022/03/14 01:04:27;;;;;;;0.50;0.50;;;;;;;13.56;51.12;101230.34;5170884;28;20041;-82
2022/03/14 01:06:58;;;;;;;0.30;0.30;;;;;;;13.55;50.55;101218.13;5186124;28;20085;-81
2022/03/14 01:09:32;;;;;;;0.77;0.77;;;;;;;13.47;50.75;101220.97;5175607;28;20125;-80
2022/03/14 01:12:03;;;;;;;0.40;0.40;;;;;;;13.49;50.69;101227.06;5177134;28;20101;-82
2022/03/14 01:14:33;;;;;;;2.42;1.42;;;;;;;13.49;50.88;101227.06;5186186;28;20138;-84
2022/03/14 01:17:04;;;;;;;0.30;0.30;;;;;;;13.47;51.22;101234.16;5170058;28;20313;-84
2022/03/14 01:19:34;;;;;;;0.45;0.45;;;;;;;13.50;51.27;101234.06;5178453;28;20208;-84
2022/03/14 01:22:10;;;;;;;0.52;0.47;;;;;;;13.44;51.69;101242.16;5182312;28;20045;-82
2022/03/14 01:24:43;;;;;;;0.40;0.40;;;;;;;13.43;51.78;101242.19;5183206;28;20084;-82
2022/03/14 01:27:13;;;;;;;0.63;0.63;;;;;;;13.51;51.43;101238.41;5187307;28;20030;-82
2022/03/14 01:29:44;;;;;;;0.60;0.60;;;;;;;13.53;51.36;101246.28;5178352;28;20096;-83
2022/03/14 01:32:17;;;;;;;0.63;0.63;;;;;;;13.52;52.63;101240.13;5180822;28;20451;-81
2022/03/14 01:34:47;;;;;;;0.60;0.60;;;;;;;13.50;51.45;101244.63;5186709;28;20124;-83
2022/03/14 01:37:19;;;;;;;0.30;0.30;;;;;;;13.46;51.66;101245.59;5163068;28;20438;-81
2022/03/14 01:39:51;;;;;;;0.55;0.55;;;;;;;13.41;52.19;101254.56;5183586;28;20041;-83
2022/03/14 01:42:22;;;;;;;0.60;0.60;;;;;;;13.43;51.75;101250.13;5171353;28;20034;-84
2022/03/14 01:44:52;;;;;;;0.35;0.35;;;;;;;13.41;51.93;101252.81;5183532;28;20496;-84
2022/03/14 01:47:23;;;;;;;0.40;0.40;;;;;;;13.40;52.36;101258.97;5171978;28;20034;-87
2022/03/14 01:49:53;;;;;;;0.30;0.30;;;;;;;13.37;51.96;101259.03;5166038;28;20053;-81
2022/03/14 01:52:24;;;;;;;0.38;0.38;;;;;;;13.41;52.26;101267.75;5187131;28;20080;-82
2022/03/14 01:54:55;;;;;;;2.20;0.55;;;;;;;13.38;52.22;101266.03;5185285;28;20042;-84
2022/03/14 01:57:26;;;;;;;0.93;0.50;;;;;;;13.37;52.30;101265.19;5188615;28;20037;-83
2022/03/14 01:59:57;;;;;;;0.30;0.30;;;;;;;13.37;52.31;101267.81;5176715;28;20039;-82
2022/03/14 02:02:27;;;;;;;0.52;0.52;;;;;;;13.38;52.22;101266.03;5185046;28;20076;-81
2022/03/14 02:04:58;;;;;;;0.50;0.50;;;;;;;13.36;52.84;101275.75;5176819;28;20045;-84
2022/03/14 02:07:29;;;;;;;1.23;1.23;;;;;;;13.32;53.02;101276.75;5171130;28;20036;-83
2022/03/14 02:09:59;;;;;;;1.75;1.65;;;;;;;13.28;53.64;101286.53;5162415;28;20052;-84
2022/03/14 02:12:32;;;;;;;1.08;1.08;;;;;;;13.31;53.38;101285.56;5180486;28;20044;-81
2022/03/14 02:15:03;;;;;;;1.48;1.42;;;;;;;13.27;53.75;101284.81;5179024;28;20412;-80
2022/03/14 02:17:36;;;;;;;1.08;1.02;;;;;;;13.24;54.31;101292.78;5165702;28;20405;-80
2022/03/14 02:20:07;;;;;;;2.40;2.20;;;;;;;13.24;54.23;101290.16;5183185;28;20218;-83
2022/03/14 02:22:38;;;;;;;0.52;0.52;;;;;;;13.25;54.27;101296.31;5189599;28;20036;-83
2022/03/14 02:25:10;;;;;;;1.63;1.52;;;;;;;13.23;53.78;101294.56;5183812;28;20446;-80
2022/03/14 02:27:46;;;;;;;0.30;0.30;;;;;;;13.29;54.21;101300.56;5159111;28;20027;-83
2022/03/14 02:30:18;;;;;;;1.48;0.73;;;;;;;13.20;54.68;101294.66;5185942;28;20026;-79
2022/03/14 02:32:48;;;;;;;0.32;0.32;;;;;;;13.21;55.18;101291.13;5177955;28;20104;-84
2022/03/14 02:35:19;;;;;;;0.52;0.52;;;;;;;13.24;54.93;101300.69;5173619;28;20139;-80
2022/03/14 02:37:50;;;;;;;1.05;0.93;;;;;;;13.23;55.02;101305.13;5146986;28;20153;-81
2022/03/14 02:40:20;;;;;;;0.70;0.70;;;;;;;13.23;55.10;101312.13;5156747;28;20056;-83
2022/03/14 02:42:51;;;;;;;0.40;0.40;;;;;;;13.19;55.50;101313.16;5172928;28;20021;-81
2022/03/14 02:45:21;;;;;;;0.30;0.30;;;;;;;13.19;55.23;101321.06;5171256;28;20105;-81
2022/03/14 02:47:52;;;;;;;0.47;0.47;;;;;;;13.13;55.54;101331.78;5181826;28;20033;-81
2022/03/14 02:50:26;;;;;;;0.50;0.50;;;;;;;13.15;55.51;101324.66;5173929;28;20030;-79
2022/03/14 02:52:59;;;;;;;0.60;0.60;;;;;;;13.09;55.88;101333.63;5167533;28;20494;-79
2022/03/14 02:55:30;;;;;;;0.50;0.50;;;;;;;13.12;56.71;101340.59;5170807;28;20050;-79
2022/03/14 02:58:00;;;;;;;0.70;0.70;;;;;;;13.10;55.58;101345.88;5177409;28;20091;-79
2022/03/14 03:00:31;;;;;;;0.30;0.30;;;;;;;13.10;55.73;101345.03;5172934;28;20050;-81
2022/03/14 03:03:03;;;;;;;0.35;0.35;;;;;;;13.08;55.73;101352.97;5175036;28;20034;-84
2022/03/14 03:05:35;;;;;;;0.40;0.40;;;;;;;13.18;57.75;101351.78;5175603;28;20437;-80
2022/03/14 03:08:06;;;;;;;0.55;0.55;;;;;;;13.09;56.09;101354.72;5153314;28;20034;-86
2022/03/14 03:10:36;;;;;;;0.75;0.70;;;;;;;13.04;56.53;101364.50;5165800;28;20388;-79
2022/03/14 03:13:06;;;;;;;0.40;0.40;;;;;;;12.99;56.76;101364.63;5180457;28;20229;-81
2022/03/14 03:15:37;;;;;;;5.00;1.30;;;;;;;13.00;56.99;101370.75;5175219;28;20038;-80
2022/03/14 03:18:11;;;;;;;0.40;0.40;;;;;;;13.01;57.23;101372.50;5170666;28;20033;-81
2022/03/14 03:20:42;;;;;;;0.40;0.40;;;;;;;13.01;57.99;101381.25;5172494;28;20096;-81
2022/03/14 03:23:12;;;;;;;0.40;0.40;;;;;;;12.97;57.58;101376.09;5178457;28;20038;-82
2022/03/14 03:25:43;;;;;;;0.65;0.65;;;;;;;12.93;57.25;101390.28;5180458;28;20049;-81
2022/03/14 03:28:17;;;;;;;0.65;0.65;;;;;;;12.95;57.67;101394.59;5172231;28;20146;-83
2022/03/14 03:30:48;;;;;;;1.10;0.80;;;;;;;12.86;58.13;101400.94;5168460;28;20494;-80
2022/03/14 03:33:18;;;;;;;0.25;0.25;;;;;;;12.85;57.66;101399.22;5173716;28;20040;-81
2022/03/14 03:35:48;;;;;;;0.30;0.30;;;;;;;12.87;57.92;101407.09;5180199;28;20064;-82
2022/03/14 03:38:19;;;;;;;0.55;0.55;;;;;;;12.81;58.12;101410.75;5177905;28;20124;-82
2022/03/14 03:40:49;;;;;;;0.57;0.57;;;;;;;12.84;57.53;101410.69;5169787;28;20115;-83
2022/03/14 03:43:21;;;;;;;6.40;0.68;;;;;;;12.86;57.89;101415.91;5176540;28;20038;-82
2022/03/14 03:45:51;;;;;;;0.50;0.50;;;;;;;12.78;57.65;101418.72;5184748;22;20050;-79
2022/03/14 03:48:22;;;;;;;2.08;1.75;;;;;;;12.81;58.54;101420.44;5128241;28;20053;-78
2022/03/14 03:50:58;;;;;;;0.90;0.90;;;;;;;12.83;58.98;101426.50;5129594;28;20053;-79
2022/03/14 03:53:29;;;;;;;0.50;0.50;;;;;;;12.81;58.83;101428.31;5125350;28;20568;-79
2022/03/14 03:56:02;;;;;;;0.30;0.30;;;;;;;12.73;58.66;101434.63;5134036;28;20050;-79
2022/03/14 03:58:33;;;;;;;0.82;0.82;;;;;;;12.74;60.27;101448.66;5120928;28;20030;-79
2022/03/14 04:01:06;;;;;;;0.47;0.47;;;;;;;12.55;59.84;101449.09;5146509;28;20100;-79
2022/03/14 04:03:37;;;;;;;0.40;0.40;;;;;;;12.69;59.53;101451.41;5128120;28;20045;-79
2022/03/14 04:06:08;;;;;;;0.60;0.60;;;;;;;12.60;62.08;101456.91;5127993;28;20030;-79
2022/03/14 04:08:39;;;;;;;0.45;0.45;;;;;;;12.64;60.01;101463.84;5155075;28;20026;-79
2022/03/14 04:11:13;;;;;;;0.65;0.63;;;;;;;12.63;60.42;101455.94;5116089;28;20025;-79
2022/03/14 04:13:44;;;;;;;0.40;0.40;;;;;;;12.56;60.67;101466.63;5116912;28;20038;-79
2022/03/14 04:16:17;;;;;;;0.40;0.40;;;;;;;12.53;59.88;101465.84;5154686;28;20316;-80
2022/03/14 04:18:48;;;;;;;0.32;0.32;;;;;;;12.56;59.82;101464.00;5149811;28;20045;-80
2022/03/14 04:21:21;;;;;;;0.70;0.70;;;;;;;12.53;59.15;101471.09;5122895;28;20022;-80
2022/03/14 04:23:57;;;;;;;0.30;0.30;;;;;;;12.56;60.62;101479.78;5159070;28;20053;-78
2022/03/14 04:26:31;;;;;;;0.30;0.30;;;;;;;12.50;60.12;101477.31;5114142;28;20041;-79
2022/03/14 04:29:09;;;;;;;0.32;0.32;;;;;;;12.45;60.09;101484.44;5132168;28;20045;-78
2022/03/14 04:31:43;;;;;;;0.30;0.30;;;;;;;12.32;62.03;101485.63;5117166;28;20022;-78
2022/03/14 04:34:14;;;;;;;0.40;0.40;;;;;;;12.37;60.06;101486.38;5132462;28;20046;-78
2022/03/14 04:36:50;;;;;;;0.57;0.57;;;;;;;12.46;60.77;101494.06;5149209;28;20033;-79
2022/03/14 04:39:21;;;;;;;0.60;0.60;;;;;;;12.37;59.94;101499.53;5138022;28;20042;-78
2022/03/14 04:41:53;;;;;;;0.43;0.43;;;;;;;12.36;60.37;101500.41;5142564;28;20070;-79
2022/03/14 04:44:24;;;;;;;0.20;0.20;;;;;;;12.37;62.08;101503.03;5142505;28;20153;-78
2022/03/14 04:46:55;;;;;;;0.50;0.50;;;;;;;12.36;59.99;101510.94;5132920;28;20137;-78
2022/03/14 04:49:27;;;;;;;0.22;0.22;;;;;;;12.10;62.33;101526.41;5129779;28;20034;-78
2022/03/14 04:51:57;;;;;;;0.82;0.82;;;;;;;12.15;60.04;101523.69;5106873;28;20054;-78
2022/03/14 04:54:28;;;;;;;0.20;0.20;;;;;;;12.17;60.76;101527.16;5130894;28;20069;-79
2022/03/14 04:57:04;;;;;;;0.30;0.30;;;;;;;11.93;62.52;101526.72;5118251;28;20085;-78
2022/03/14 04:59:37;;;;;;;0.30;0.30;;;;;;;11.96;61.05;101528.41;5141800;28;20475;-78
2022/03/14 05:02:08;;;;;;;0.30;0.30;;;;;;;12.03;61.50;101529.19;5125498;28;20037;-79
2022/03/14 05:04:39;;;;;;;0.30;0.30;;;;;;;11.97;62.12;101532.81;5123223;28;20046;-78
2022/03/14 05:07:23;;;;;;;0.40;0.40;;;;;;;12.07;60.28;101530.88;5130065;28;20113;-79
2022/03/14 05:09:59;;;;;;;0.25;0.25;;;;;;;12.09;61.79;101529.94;5141140;28;20507;-79
2022/03/14 05:12:31;;;;;;;1.13;1.10;;;;;;;12.09;61.65;101544.84;5109996;28;20093;-79
2022/03/14 05:15:03;;;;;;;0.55;0.55;;;;;;;12.11;61.51;101553.56;5124706;28;20061;-79
2022/03/14 05:17:36;;;;;;;0.43;0.43;;;;;;;11.98;60.63;101552.97;5158131;28;20429;-79
2022/03/14 05:20:14;;;;;;;0.45;0.45;;;;;;;12.00;60.09;101555.56;5141942;28;20038;-79
2022/03/14 05:22:53;;;;;;;0.43;0.43;;;;;;;12.02;61.10;101556.41;5125906;28;20049;-79
2022/03/14 05:25:24;;;;;;;0.20;0.20;;;;;;;11.93;62.66;101566.16;5108102;28;20038;-79
2022/03/14 05:31:21;;;;;;;0.30;0.30;;;;;;;11.90;61.80;101581.16;5106170;28;20162;-80
2022/03/14 05:34:23;;;;;;;0.20;0.20;;;;;;;11.53;65.00;101587.91;5140137;28;20093;-83
2022/03/14 05:36:59;;;;;;;0.30;0.30;;;;;;;11.53;64.37;101590.53;5123187;28;20096;-79
2022/03/14 05:39:45;;;;;;;0.25;0.25;;;;;;;11.62;63.72;101605.28;5099978;28;20051;-81
2022/03/14 05:42:25;;;;;;;0.57;0.57;;;;;;;11.59;63.80;101595.72;5106499;28;20117;-80
2022/03/14 05:45:06;;;;;;;0.30;0.30;;;;;;;11.54;64.01;101605.41;5123959;28;20074;-80
2022/03/14 05:47:40;;;;;;;0.30;0.30;;;;;;;11.44;63.91;101602.09;5125980;28;20031;-80
2022/03/14 05:50:24;;;;;;;1.02;0.98;;;;;;;11.18;65.95;101600.72;5128502;28;20117;-80
2022/03/14 05:53:20;;;;;;;0.38;0.38;;;;;;;11.26;64.17;101605.00;5121356;28;20042;-80
2022/03/14 05:55:51;;;;;;;;;;;;;;;10.84;67.48;101611.72;5128613;28;20053;-80
2022/03/14 05:58:34;;;;;;;0.30;0.30;;;;;;;11.07;66.21;101617.56;5112693;28;19909;-81
2022/03/14 06:01:07;;;;;;;0.40;0.40;;;;;;;11.21;64.80;101614.72;5100640;28;20797;-80
2022/03/14 06:03:37;;;;;;;0.30;0.30;;;;;;;11.00;66.18;101616.75;5125712;28;20072;-79
2022/03/14 06:06:16;;;;;;;0.30;0.30;;;;;;;11.10;65.89;101625.41;5112648;28;20547;-80
2022/03/14 06:09:05;;;;;;;0.43;0.43;;;;;;;10.80;67.52;101624.91;5112714;28;20038;-80
2022/03/14 06:11:48;;;;;;;1.58;1.48;;;;;;;10.82;65.66;101629.28;5141798;28;20034;-79
2022/03/14 06:24:48;;;;;;;0.95;0.95;;;;;;;10.71;67.03;101634.66;5160846;28;19925;-81
2022/03/14 06:27:59;;;;;;;0.55;0.52;;;;;;;10.75;67.12;101642.50;5088491;28;20043;-80
2022/03/14 06:31:27;;;;;;;0.40;0.40;;;;;;;10.58;67.67;101648.81;5052491;28;20269;-80
2022/03/14 06:37:31;;;;;;;0.40;0.40;;;;;;;10.58;67.68;101645.34;5053912;29;20036;-80
2022/03/14 06:48:28;;;;;;;0.77;0.77;;;;;;;10.41;67.97;101666.53;5112880;28;20043;-80
2022/03/14 06:52:02;;;;;;;;;;;;;;;;;;;;;
2022/03/14 06:58:35;;;;;;;0.68;0.68;;;;;;;10.42;67.97;101663.88;5477333;22;20082;-81
2022/03/14 07:05:59;;;;;;;0.38;0.38;;;;;;;10.51;66.45;101686.53;5220579;22;20455;-82
2022/03/14 07:08:48;;;;;;;1.63;1.52;;;;;;;10.60;66.87;101691.69;5162396;28;20030;-80
2022/03/14 07:11:51;;;;;;;0.50;0.50;;;;;;;10.36;68.55;101701.53;5178625;28;20038;-79
2022/03/14 07:14:25;;;;;;;0.40;0.40;;;;;;;10.53;66.90;101708.38;5141167;28;20042;-80
2022/03/14 07:17:34;;;;;;;1.38;1.20;;;;;;;10.68;66.60;101702.97;5137499;28;20038;-81
2022/03/14 07:20:17;;;;;;;0.40;0.40;;;;;;;10.62;66.49;101707.41;5135278;28;20055;-79
2022/03/14 07:22:58;;;;;;;0.98;0.98;;;;;;;10.72;66.18;101711.66;5118744;28;20617;-79
2022/03/14 07:25:31;;;;;;;0.45;0.45;;;;;;;10.76;66.31;101715.13;5096428;28;20043;-82
2022/03/14 07:28:05;;;;;;;0.50;0.50;;;;;;;10.56;67.75;101713.56;5112096;28;20104;-80
2022/03/14 07:30:37;;;;;;;0.35;0.35;;;;;;;10.52;67.53;101723.25;5126330;28;20069;-79
2022/03/14 07:33:11;;;;;;;0.70;0.50;;;;;;;10.75;66.75;101724.72;5115493;28;20047;-79
2022/03/14 07:35:41;;;;;;;0.73;0.73;;;;;;;10.69;66.67;101725.69;5107533;28;20050;-79
2022/03/14 07:38:15;;;;;;;0.30;0.30;;;;;;;10.62;66.22;101733.63;5130446;28;20070;-81
2022/03/14 07:40:49;;;;;;;1.70;1.60;;;;;;;10.54;67.48;101746.84;5087422;28;20150;-80
2022/03/14 07:43:20;;;;;;;0.30;0.30;;;;;;;10.51;67.95;101744.25;5102889;28;20445;-79
2022/03/14 07:45:58;;;;;;;0.43;0.43;;;;;;;10.53;67.85;101747.75;5119847;28;20043;-79
2022/03/14 07:48:29;;;;;;;0.40;0.40;;;;;;;10.46;67.60;101756.53;5148336;28;20035;-79
2022/03/14 07:50:59;;;;;;;1.88;1.50;;;;;;;10.44;68.28;101763.56;5145475;28;20686;-79
2022/03/14 07:53:33;;;;;;;0.75;0.73;;;;;;;10.74;66.04;101761.50;5111989;28;20078;-79
2022/03/14 07:56:04;;;;;;;0.82;0.82;;;;;;;10.58;67.52;101774.78;5111029;28;20102;-79
2022/03/14 07:58:37;;;;;;;0.40;0.40;;;;;;;10.54;68.21;101781.84;5125112;28;20129;-79
2022/03/14 08:01:45;;;;;;;0.55;0.50;;;;;;;10.71;67.83;101786.91;5119405;28;20043;-81
2022/03/14 08:04:16;;;;;;;0.32;0.32;;;;;;;10.48;68.72;101792.41;5125881;28;20734;-78
2022/03/14 08:06:49;;;;;;;1.75;1.42;;;;;;;10.35;68.69;101796.84;5144345;28;20031;-80
2022/03/14 08:09:21;;;;;;;0.75;0.75;;;;;;;10.47;68.18;101800.25;5131058;28;20047;-81
2022/03/14 08:12:21;;;;;;;1.25;0.95;;;;;;;10.41;68.43;101802.94;5133632;28;20107;-78
2022/03/14 08:14:52;;;;;;;0.60;0.60;;;;;;;10.60;68.11;101804.53;5122484;28;20047;-79
2022/03/14 08:17:25;;;;;;;0.40;0.40;;;;;;;10.45;68.37;101804.69;5118174;28;20041;-78
2022/03/14 08:19:58;;;;;;;1.00;0.80;;;;;;;10.38;69.41;101814.34;5110911;28;20067;-78
2022/03/14 08:22:31;;;;;;;1.27;1.23;;;;;;;10.49;68.56;101816.88;5109284;28;20402;-79
2022/03/14 08:25:02;;;;;;;0.40;0.40;;;;;;;10.29;69.51;101820.50;5108678;28;20064;-78
2022/03/14 08:27:33;;;;;;;0.22;0.22;;;;;;;10.36;69.21;101816.06;5161464;28;20034;-79
2022/03/14 08:30:05;;;;;;;0.63;0.63;;;;;;;10.37;69.16;101823.09;5139555;28;20037;-79
2022/03/14 08:32:41;;;;;;;0.20;0.20;;;;;;;10.32;69.62;101820.47;5146921;28;20093;-79
2022/03/14 08:35:15;;;;;;;0.40;0.40;;;;;;;10.40;69.45;101817.84;5146680;28;20055;-79
2022/03/14 08:37:52;;;;;;;2.92;1.80;;;;;;;10.40;69.72;101825.72;5114627;28;20027;-79
2022/03/14 08:40:28;;;;;;;0.57;0.57;;;;;;;10.43;69.26;101835.28;5148545;28;20042;-79
2022/03/14 08:42:58;;;;;;;0.30;0.30;;;;;;;10.36;69.26;101837.94;5155277;28;20113;-79
2022/03/14 08:45:29;;;;;;;0.40;0.40;;;;;;;10.29;69.48;101841.47;5135157;28;20069;-79
2022/03/14 08:47:59;;;;;;;0.40;0.40;;;;;;;10.26;68.93;101838.00;5155469;28;20444;-79
2022/03/14 08:50:32;;;;;;;0.95;0.50;;;;;;;10.17;69.39;101846.84;5123424;28;20125;-79
2022/03/14 08:53:11;;;;;;;0.52;0.52;;;;;;;10.32;69.60;101856.34;5170625;28;20092;-80
2022/03/14 08:55:49;;;;;;;0.75;0.75;;;;;;;10.34;69.93;101858.06;5150412;28;20173;-79
2022/03/14 08:58:22;;;;;;;0.40;0.40;;;;;;;10.24;69.23;101859.00;5134634;28;20560;-80
2022/03/14 09:01:05;;;;;;;0.68;0.68;;;;;;;10.44;69.50;101864.13;5126084;28;20057;-79
2022/03/14 09:03:37;;;;;;;0.57;0.57;;;;;;;10.51;69.06;101859.72;5145273;28;20034;-80
2022/03/14 09:17:59;;;;;;;1.20;1.10;;;;;;;10.76;68.51;101877.88;4934786;29;20070;-79
2022/03/14 09:20:47;;;;;;;0.22;0.22;;;;;;;10.60;67.87;101872.75;4997308;29;20073;-80
2022/03/14 09:23:26;;;;;;;4.93;0.90;;;;;;;10.64;66.78;101881.47;5033974;29;20064;-79
2022/03/14 09:25:57;;;;;;;1.10;0.70;;;;;;;10.66;67.06;101890.22;5016630;29;20048;-79
2022/03/14 09:28:48;;;;;;;6.13;1.05;;;;;;;10.62;66.12;101894.59;5029889;29;20044;-81
2022/03/14 09:31:22;;;;;;;1.10;0.88;;;;;;;10.62;65.91;101899.00;5028639;29;20040;-80
2022/03/14 09:34:31;;;;;;;0.45;0.45;;;;;;;10.70;65.91;101900.66;5056041;29;20112;-81
2022/03/14 09:37:20;;;;;;;0.30;0.30;;;;;;;10.77;65.83;101906.72;5112196;28;20063;-80
2022/03/14 09:40:03;;;;;;;1.38;0.93;;;;;;;10.78;66.07;101912.88;5131302;28;20054;-83
2022/03/14 09:42:39;;;;;;;0.82;0.82;;;;;;;10.82;65.41;101906.69;5121901;28;20089;-82
2022/03/14 09:45:11;;;;;;;0.30;0.30;;;;;;;10.88;65.96;101903.13;5136406;28;20058;-82
2022/03/14 09:48:11;;;;;;;0.50;0.50;;;;;;;10.87;66.28;101912.75;5126889;28;20030;-80
2022/03/14 09:50:47;;;;;;;0.40;0.40;;;;;;;10.99;65.88;101917.91;5129974;28;20030;-81
2022/03/14 09:53:23;;;;;;;0.70;0.70;;;;;;;10.91;66.31;101917.09;5153471;28;20034;-81
2022/03/14 09:55:56;;;;;;;0.28;0.28;;;;;;;10.91;66.10;101919.72;5110108;28;20078;-82
2022/03/14 09:58:27;;;;;;;3.13;1.33;;;;;;;11.02;66.50;101925.75;5111710;28;20752;-80
2022/03/14 10:01:02;;;;;;;0.47;0.47;;;;;;;11.09;65.48;101928.31;5127411;28;20042;-81
2022/03/14 10:03:36;;;;;;;0.40;0.40;;;;;;;11.11;65.53;101934.44;5141314;28;20058;-81
2022/03/14 10:06:06;;;;;;;2.65;2.03;;;;;;;11.03;65.46;101939.75;5150878;28;20058;-80
2022/03/14 10:08:37;;;;;;;0.30;0.30;;;;;;;11.03;64.81;101937.97;5159412;28;20057;-80
2022/03/14 10:11:10;;;;;;;0.85;0.85;;;;;;;11.09;65.76;101941.47;5128230;28;20395;-80
2022/03/14 10:13:41;;;;;;;0.55;0.55;;;;;;;11.19;65.03;101951.00;5125571;28;20031;-79
2022/03/14 10:16:19;;;;;;;0.73;0.73;;;;;;;11.12;63.85;101947.56;5136726;28;20512;-79
2022/03/14 10:19:10;;;;;;;1.33;1.05;;;;;;;11.22;63.52;101955.34;5143780;28;20034;-79
2022/03/14 10:21:43;;;;;;;0.30;0.30;;;;;;;11.32;64.36;101954.38;5157945;28;20536;-79
2022/03/14 10:24:13;;;;;;;0.40;0.40;;;;;;;11.33;62.76;101964.84;5140419;28;20053;-80
2022/03/14 10:26:44;;;;;;;0.50;0.50;;;;;;;11.33;62.68;101959.59;5145037;28;20041;-78
2022/03/14 10:29:25;;;;;;;1.00;1.00;;;;;;;11.42;61.93;101965.66;5149457;28;20505;-79
2022/03/14 10:31:56;;;;;;;0.60;0.60;;;;;;;11.27;62.71;101964.03;5145010;28;20129;-79
2022/03/14 10:34:29;;;;;;;0.40;0.40;;;;;;;11.41;62.56;101972.66;5148577;28;20114;-79
2022/03/14 10:37:11;;;;;;;0.30;0.30;;;;;;;11.39;62.80;101976.19;5155022;28;20149;-79
2022/03/14 10:39:59;;;;;;;0.60;0.60;;;;;;;11.47;63.06;101974.34;5151446;28;20046;-80
2022/03/14 10:42:47;;;;;;;0.40;0.40;;;;;;;11.47;63.12;101982.22;5145064;28;20090;-80
2022/03/14 10:45:45;;;;;;;0.30;0.30;;;;;;;11.49;62.94;101985.72;5114279;28;20049;-81
2022/03/14 10:52:06;;;;;;;4.22;1.20;;;;;;;11.53;63.31;101982.16;5138704;28;20035;-79
2022/03/14 10:54:38;;;;;;;0.98;0.98;;;;;;;11.71;62.67;101986.34;5137504;28;20042;-78
2022/03/14 10:57:25;;;;;;;1.17;1.08;;;;;;;11.71;62.54;101991.59;5171316;28;20026;-79
2022/03/14 10:59:57;;;;;;;0.77;0.77;;;;;;;11.69;62.60;101997.78;5162249;28;20108;-78
2022/03/14 11:02:28;;;;;;;0.40;0.40;;;;;;;11.66;63.00;101998.66;5125781;28;20102;-78
2022/03/14 11:04:59;;;;;;;0.57;0.57;;;;;;;11.63;62.70;102001.34;5164095;28;20062;-79
2022/03/14 11:07:32;;;;;;;0.55;0.55;;;;;;;11.73;61.97;102010.00;5131827;28;20428;-79
2022/03/14 11:10:09;;;;;;;0.90;0.90;;;;;;;11.74;61.67;102001.22;5124052;28;20030;-82
2022/03/14 11:13:36;;;;;;;0.55;0.55;;;;;;;11.68;61.95;102001.28;5139746;28;20457;-79
2022/03/14 11:16:12;;;;;;;0.50;0.50;;;;;;;11.73;61.94;102003.00;5139181;28;20105;-79
2022/03/14 11:18:47;;;;;;;0.82;0.82;;;;;;;11.61;61.08;101993.44;5164863;28;20022;-79
2022/03/14 11:21:24;;;;;;;0.57;0.57;;;;;;;11.61;61.04;102006.59;5149056;28;20042;-78
2022/03/14 11:24:16;;;;;;;0.50;0.50;;;;;;;11.74;61.23;102002.06;5142632;28;20106;-79
2022/03/14 11:27:21;;;;;;;0.30;0.30;;;;;;;11.58;61.29;102014.53;5164286;28;20022;-80
2022/03/14 11:30:34;;;;;;;7.32;1.52;;;;;;;11.60;60.54;102018.03;5108213;28;20037;-80
2022/03/14 11:33:14;;;;;;;0.68;0.68;;;;;;;11.54;59.54;102012.81;5155375;28;20089;-80
2022/03/14 11:35:45;;;;;;;0.57;0.57;;;;;;;11.50;60.04;102009.34;5151750;28;20046;-80
2022/03/14 11:38:19;;;;;;;0.20;0.20;;;;;;;11.64;59.89;102011.84;5139168;28;20040;-81
2022/03/14 11:40:51;;;;;;;0.30;0.30;;;;;;;11.62;60.08;102012.75;5114061;28;20097;-80
2022/03/14 11:43:22;;;;;;;0.80;0.80;;;;;;;11.60;60.36;102023.28;5140474;28;20039;-81
2022/03/14 11:45:56;;;;;;;1.45;0.47;;;;;;;11.67;60.22;102020.59;5150457;28;20054;-81
2022/03/14 11:48:32;;;;;;;0.30;0.30;;;;;;;11.64;60.28;102014.47;5142515;28;20050;-80
2022/03/14 11:51:07;;;;;;;0.73;0.73;;;;;;;11.62;59.85;102018.84;5106506;28;20066;-81
2022/03/14 11:53:51;;;;;;;0.63;0.50;;;;;;;11.66;60.94;102019.69;5136567;28;20114;-80
2022/03/14 11:56:38;;;;;;;0.30;0.30;;;;;;;11.72;61.20;102027.53;5123362;28;20086;-81
2022/03/14 11:59:24;;;;;;;1.00;0.75;;;;;;;11.73;60.81;102028.41;5120843;28;20062;-79
2022/03/14 12:02:00;;;;;;;0.57;0.55;;;;;;;11.74;59.84;102025.75;5147273;28;20112;-81
2022/03/14 12:04:34;;;;;;;0.40;0.40;;;;;;;11.76;59.18;102031.00;5142498;28;20101;-82
2022/03/14 12:07:10;;;;;;;0.35;0.35;;;;;;;11.70;59.80;102026.69;5128664;28;20552;-81
2022/03/14 12:09:45;;;;;;;0.52;0.52;;;;;;;11.62;59.40;102028.50;5116888;28;20050;-80
2022/03/14 12:12:21;;;;;;;1.20;1.05;;;;;;;11.61;60.48;102032.03;5112101;28;20340;-80
2022/03/14 12:14:56;;;;;;;0.52;0.52;;;;;;;11.80;60.14;102032.69;5125693;28;20406;-80
2022/03/14 12:17:35;;;;;;;0.30;0.30;;;;;;;11.95;59.80;102029.88;5105151;28;20028;-82
2022/03/14 12:20:14;;;;;;;0.65;0.65;;;;;;;11.87;58.00;102029.09;5106515;28;20195;-81
2022/03/14 12:22:46;;;;;;;0.40;0.40;;;;;;;11.96;58.21;102043.94;5130557;28;20034;-81
2022/03/14 12:25:41;;;;;;;0.32;0.32;;;;;;;11.92;57.31;102043.09;5123637;28;20070;-82
2022/03/14 12:28:36;;;;;;;0.50;0.50;;;;;;;11.94;57.38;102041.28;5110732;28;20042;-83
2022/03/14 12:31:16;;;;;;;1.15;0.77;;;;;;;12.04;58.17;102039.47;5129850;28;20858;-81
2022/03/14 12:33:56;;;;;;;0.40;0.40;;;;;;;12.07;58.07;102042.03;5139595;28;20121;-80
2022/03/14 12:36:42;;;;;;;0.80;0.80;;;;;;;12.14;57.77;102034.97;5103694;28;20709;-79
2022/03/14 12:39:21;;;;;;;0.80;0.80;;;;;;;12.21;57.54;102033.13;5124673;28;20575;-84
2022/03/14 12:42:25;;;;;;;0.40;0.40;;;;;;;12.22;57.59;102041.00;5120459;28;20740;-81
2022/03/14 12:45:17;;;;;;;0.40;0.40;;;;;;;12.27;57.54;102054.94;5115720;28;20081;-80
2022/03/14 12:47:52;;;;;;;0.43;0.43;;;;;;;12.35;57.43;102056.63;5117235;28;20043;-80
2022/03/14 12:50:50;;;;;;;1.58;0.45;;;;;;;12.36;57.36;102045.19;5102716;28;20039;-80
2022/03/14 12:53:29;;;;;;;0.50;0.50;;;;;;;12.24;57.02;102049.75;5123022;28;20497;-80
2022/03/14 12:56:03;;;;;;;0.43;0.43;;;;;;;12.37;56.99;102054.84;5136834;28;21353;-80
2022/03/14 12:58:34;;;;;;;0.60;0.60;;;;;;;12.32;56.26;102048.78;5107500;28;20548;-80